Jovita, Washington
Current Conditions -  °F | °C
As of 1:58 AM on Monday 22 Dec 2014 (Local Time) from KTCM Reporting Station
Scattered Clouds Scattered Clouds  
Wind Chill: 44°   Ceiling: Unl
Heat Index: 48°   Visibility: 10mi
Dew Point: 48°   Wind: 12mph
Humidity: 97%   Direction: 220°SW
Pressure: 30.15"   Gusts: NA
Location:  47.1905°N, 122.328°W
Report Text: KTCM 220958Z AUTO 22010KT 10SM SCT140 09/09 A3015 RMK AO2 SLP214 P0001 T00910087
Loading
Personal Weather Stations






























Interactive Weather Map New forecast layout! Learn more

10-Day Weather Forecast

Advertisements
Track Severe Weather on mobile